Time;durP1;ratioP1;P1;durP2;ratioP2;P2;SDS_P1;SDS_P2;PMS_P1;PMS_P2;Temp;Humidity;BMP_temperature;BMP_pressure;BME280_temperature;BME280_humidity;BME280_pressure;Samples;Min_cycle;Max_cycle;Signal;HPM_P1;HPM_P2
2022/03/15 00:01:59;;;;;;;3.13;2.17;;;17.70;44.00;16.90;102466.00;;;;5052576;28;20086;-64
2022/03/15 00:04:45;;;;;;;3.58;2.25;;;17.70;44.00;16.90;102469.00;;;;5049116;28;20044;-65
2022/03/15 00:07:31;;;;;;;3.15;2.15;;;17.70;44.00;16.90;102469.00;;;;5056027;28;20036;-65
2022/03/15 00:10:18;;;;;;;3.13;2.58;;;17.80;44.10;16.90;102464.00;;;;5056736;28;20040;-64
2022/03/15 00:13:05;;;;;;;2.50;2.15;;;17.70;44.00;16.80;102466.00;;;;5034819;28;20036;-64
2022/03/15 00:15:52;;;;;;;2.30;2.10;;;17.70;44.00;16.80;102473.00;;;;5051864;28;20048;-65
2022/03/15 00:18:38;;;;;;;3.35;2.38;;;17.70;44.00;16.80;102470.00;;;;5056832;28;20441;-65
2022/03/15 00:21:25;;;;;;;2.20;2.00;;;17.70;44.00;16.80;102484.00;;;;5045420;28;20036;-64
2022/03/15 00:24:11;;;;;;;4.38;2.50;;;17.70;44.00;16.80;102486.00;;;;5056471;28;20045;-65
2022/03/15 00:26:58;;;;;;;4.30;2.60;;;17.70;43.90;16.80;102477.00;;;;5056495;28;20454;-64
2022/03/15 00:29:46;;;;;;;4.00;2.42;;;17.70;44.00;16.80;102471.00;;;;5043257;28;20039;-64
2022/03/15 00:32:33;;;;;;;4.65;2.78;;;17.70;44.00;16.80;102468.00;;;;5061548;28;20455;-65
2022/03/15 00:35:20;;;;;;;2.55;2.25;;;17.60;43.90;16.80;102471.00;;;;5057902;28;20041;-64
2022/03/15 00:38:07;;;;;;;3.53;2.72;;;17.60;43.90;16.80;102472.00;;;;5056705;28;20056;-64
2022/03/15 00:40:53;;;;;;;3.15;2.47;;;17.60;43.90;16.80;102472.00;;;;5056640;28;20055;-65
2022/03/15 00:43:39;;;;;;;2.45;2.20;;;17.60;43.90;16.80;102467.00;;;;5057475;28;20040;-65
2022/03/15 00:46:25;;;;;;;2.67;2.10;;;17.60;43.90;16.80;102470.00;;;;5053779;28;20045;-65
2022/03/15 00:49:11;;;;;;;2.50;2.30;;;17.60;43.90;16.80;102471.00;;;;5058388;28;20113;-64
2022/03/15 00:51:57;;;;;;;3.05;2.45;;;17.60;43.90;16.80;102475.00;;;;5054545;28;20039;-64
2022/03/15 00:54:43;;;;;;;3.35;2.72;;;17.60;43.90;16.80;102466.00;;;;5057073;28;20468;-65
2022/03/15 00:57:29;;;;;;;2.83;2.38;;;17.60;43.90;16.80;102461.00;;;;5058492;28;20049;-65
2022/03/15 01:00:16;;;;;;;3.17;2.80;;;17.60;43.90;16.80;102451.00;;;;5041271;28;20124;-65
2022/03/15 01:03:05;;;;;;;2.72;2.45;;;17.60;43.90;16.80;102452.00;;;;5059523;28;20107;-64
2022/03/15 01:05:52;;;;;;;5.18;2.53;;;17.60;43.90;16.80;102453.00;;;;5050883;28;20040;-64
2022/03/15 01:08:38;;;;;;;2.83;2.60;;;17.60;43.80;16.70;102453.00;;;;5045121;28;20036;-65
2022/03/15 01:11:24;;;;;;;3.38;2.67;;;17.60;43.80;16.70;102444.00;;;;5055296;28;20044;-65
2022/03/15 01:14:10;;;;;;;2.50;2.28;;;17.60;43.80;16.70;102435.00;;;;5064362;28;20505;-65
2022/03/15 01:16:57;;;;;;;4.03;2.72;;;17.60;43.80;16.70;102441.00;;;;5053969;28;20491;-65
2022/03/15 01:19:43;;;;;;;3.85;2.60;;;17.60;43.80;16.70;102427.00;;;;5065019;28;20508;-65
2022/03/15 01:22:29;;;;;;;3.80;2.65;;;17.60;43.80;16.70;102429.00;;;;5045746;28;20029;-65
2022/03/15 01:25:15;;;;;;;3.17;2.58;;;17.60;43.80;16.70;102427.00;;;;5060517;28;20539;-65
2022/03/15 01:28:01;;;;;;;3.17;2.83;;;17.60;43.80;16.70;102433.00;;;;5064527;28;20036;-65
2022/03/15 01:30:47;;;;;;;3.40;2.60;;;17.60;43.80;16.70;102432.00;;;;5061687;28;20041;-65
2022/03/15 01:33:33;;;;;;;4.05;2.70;;;17.60;43.80;16.70;102430.00;;;;5066994;28;20126;-64
2022/03/15 01:36:20;;;;;;;3.03;2.72;;;17.60;43.80;16.70;102430.00;;;;5045715;28;20051;-65
2022/03/15 01:39:06;;;;;;;3.35;3.05;;;17.60;43.80;16.70;102434.00;;;;5058486;28;20490;-65
2022/03/15 01:41:52;;;;;;;4.43;3.25;;;17.60;43.80;16.70;102431.00;;;;5055844;28;20048;-65
2022/03/15 01:44:44;;;;;;;5.95;3.35;;;17.60;43.80;16.70;102429.00;;;;5060308;28;20450;-65
2022/03/15 01:47:30;;;;;;;3.72;3.10;;;17.60;43.80;16.70;102420.00;;;;5050491;28;20080;-64
2022/03/15 01:50:17;;;;;;;4.53;2.97;;;17.60;43.80;16.70;102421.00;;;;5054630;28;20137;-65
2022/03/15 01:53:04;;;;;;;3.65;3.00;;;17.60;43.70;16.70;102409.00;;;;5056520;28;20084;-64
2022/03/15 01:55:50;;;;;;;4.97;3.25;;;17.50;43.70;16.70;102410.00;;;;5059987;28;20514;-64
2022/03/15 01:58:36;;;;;;;4.43;3.15;;;17.50;43.70;16.70;102406.00;;;;5056485;28;20060;-65
2022/03/15 02:01:22;;;;;;;5.07;3.25;;;17.60;43.70;16.70;102406.00;;;;5063211;28;20040;-65
2022/03/15 02:04:09;;;;;;;4.25;3.50;;;17.60;43.70;16.70;102402.00;;;;5057694;28;20028;-65
2022/03/15 02:07:09;;;;;;;4.33;3.23;;;17.60;43.70;16.70;102403.00;;;;5059971;28;20065;-65
2022/03/15 02:09:55;;;;;;;3.25;2.67;;;17.50;43.70;16.70;102394.00;;;;5048325;28;20037;-64
2022/03/15 02:12:42;;;;;;;4.13;3.00;;;17.60;43.70;16.70;102403.00;;;;5056970;28;20375;-65
2022/03/15 02:15:28;;;;;;;4.82;3.50;;;17.60;43.70;16.70;102398.00;;;;5055831;28;20049;-65
2022/03/15 02:18:14;;;;;;;4.35;3.53;;;17.60;43.70;16.70;102405.00;;;;5052471;28;20622;-65
2022/03/15 02:21:00;;;;;;;4.07;3.25;;;17.60;43.70;16.70;102394.00;;;;5063537;28;20365;-64
2022/03/15 02:23:46;;;;;;;4.53;3.47;;;17.60;43.70;16.70;102395.00;;;;5063532;28;20051;-64
2022/03/15 02:26:32;;;;;;;4.90;3.50;;;17.60;43.70;16.70;102396.00;;;;5057656;28;20456;-65
2022/03/15 02:29:22;;;;;;;4.35;3.67;;;17.50;43.60;16.70;102390.00;;;;5054803;28;20044;-65
2022/03/15 02:32:08;;;;;;;4.85;3.35;;;17.50;44.30;16.70;102384.00;;;;5058480;28;20037;-64
2022/03/15 02:34:54;;;;;;;5.22;3.60;;;17.60;43.70;16.70;102390.00;;;;5058284;28;20063;-64
2022/03/15 02:37:40;;;;;;;4.10;3.53;;;17.50;43.70;16.70;102388.00;;;;5063168;28;20047;-65
2022/03/15 02:40:26;;;;;;;4.82;3.70;;;17.50;43.60;16.60;102390.00;;;;5052671;28;20136;-65
2022/03/15 02:43:12;;;;;;;4.03;3.08;;;17.50;43.60;16.60;102375.00;;;;5042959;28;20040;-65
2022/03/15 02:45:58;;;;;;;4.80;2.92;;;17.50;43.60;16.70;102385.00;;;;5054862;28;20080;-64
2022/03/15 02:48:44;;;;;;;5.50;3.35;;;17.50;43.60;16.60;102371.00;;;;5057606;28;20512;-65
2022/03/15 02:51:31;;;;;;;4.85;3.20;;;17.60;43.70;16.60;102382.00;;;;5057932;28;20384;-64
2022/03/15 02:54:17;;;;;;;5.05;3.20;;;17.50;43.60;16.60;102374.00;;;;5053702;28;20045;-64
2022/03/15 02:57:03;;;;;;;4.65;3.65;;;17.50;43.60;16.60;102369.00;;;;5057940;28;20312;-65
2022/03/15 02:59:50;;;;;;;4.07;3.30;;;17.50;43.60;16.70;102372.00;;;;5056022;28;20043;-65
2022/03/15 03:02:36;;;;;;;4.53;3.60;;;17.50;43.60;16.60;102364.00;;;;5063688;28;20181;-65
2022/03/15 03:05:22;;;;;;;4.40;3.45;;;17.50;43.60;16.70;102362.00;;;;5066590;28;20033;-64
2022/03/15 03:08:10;;;;;;;6.47;3.88;;;17.50;43.60;16.70;102367.00;;;;5058392;28;20068;-65
2022/03/15 03:10:56;;;;;;;;;;;17.50;43.70;16.60;102363.00;;;;5047015;28;20437;-65
2022/03/15 03:13:44;;;;;;;3.85;3.30;;;17.60;43.60;16.60;102373.00;;;;5038493;28;19947;-64
2022/03/15 03:16:31;;;;;;;4.03;3.60;;;17.60;43.60;16.60;102378.00;;;;5059295;28;20037;-64
2022/03/15 03:19:17;;;;;;;5.55;3.67;;;17.60;43.60;16.60;102389.00;;;;5062508;28;20124;-65
2022/03/15 03:22:03;;;;;;;4.20;3.78;;;17.60;43.60;16.70;102387.00;;;;5052093;28;20095;-65
2022/03/15 03:24:50;;;;;;;4.43;4.03;;;17.60;43.60;16.70;102383.00;;;;5055240;28;20056;-65
2022/03/15 03:27:36;;;;;;;6.18;3.88;;;17.60;43.60;16.70;102373.00;;;;5059007;28;20041;-65
2022/03/15 03:30:22;;;;;;;6.25;4.55;;;17.60;43.60;16.70;102372.00;;;;5055150;28;20115;-64
2022/03/15 03:33:08;;;;;;;8.05;4.75;;;17.60;43.60;16.70;102367.00;;;;5058795;28;20033;-65
2022/03/15 03:35:54;;;;;;;5.15;3.85;;;17.60;43.60;16.70;102364.00;;;;5053411;28;20112;-65
2022/03/15 03:38:41;;;;;;;6.57;4.03;;;17.60;43.60;16.70;102357.00;;;;5044203;28;20067;-65
2022/03/15 03:41:27;;;;;;;7.78;4.85;;;17.60;43.60;16.70;102360.00;;;;5052423;28;20134;-65
2022/03/15 03:44:13;;;;;;;5.53;4.80;;;17.60;43.60;16.70;102369.00;;;;5059959;28;20264;-65
2022/03/15 03:46:59;;;;;;;6.40;4.40;;;17.60;43.60;16.70;102363.00;;;;5054654;28;20563;-65
2022/03/15 03:49:45;;;;;;;5.75;4.93;;;17.60;43.60;16.70;102365.00;;;;5042235;28;20040;-64
2022/03/15 03:52:31;;;;;;;5.40;4.53;;;17.60;43.60;16.70;102362.00;;;;5059159;28;20541;-65
2022/03/15 03:55:18;;;;;;;6.70;5.10;;;17.60;43.60;16.70;102361.00;;;;5061135;28;20116;-65
2022/03/15 03:58:04;;;;;;;6.85;4.45;;;17.60;43.60;16.70;102366.00;;;;5043716;28;20041;-64
2022/03/15 04:00:50;;;;;;;5.47;4.45;;;17.60;43.60;16.70;102357.00;;;;5041640;28;20478;-64
2022/03/15 04:03:38;;;;;;;5.65;4.88;;;17.60;43.60;16.70;102363.00;;;;5066175;28;20040;-64
2022/03/15 04:06:24;;;;;;;5.43;4.53;;;17.60;43.50;16.70;102363.00;;;;5065727;28;20063;-65
2022/03/15 04:09:10;;;;;;;5.57;4.63;;;17.60;43.50;16.70;102357.00;;;;5056731;28;20044;-64
2022/03/15 04:11:56;;;;;;;7.15;5.13;;;17.60;43.50;16.70;102359.00;;;;5063793;28;20048;-65
2022/03/15 04:14:45;;;;;;;6.43;4.63;;;17.60;43.50;16.70;102365.00;;;;5053461;28;20190;-65
2022/03/15 04:17:32;;;;;;;6.80;5.03;;;17.60;43.50;16.70;102365.00;;;;5061850;28;20044;-65
2022/03/15 04:20:19;;;;;;;5.43;4.38;;;17.60;43.50;16.70;102358.00;;;;5058524;28;20043;-65
2022/03/15 04:23:05;;;;;;;8.45;5.22;;;17.60;43.50;16.70;102368.00;;;;5055128;28;20470;-64
2022/03/15 04:25:51;;;;;;;6.32;4.75;;;17.60;43.50;16.70;102370.00;;;;5056365;28;20033;-65
2022/03/15 04:28:37;;;;;;;6.47;4.55;;;17.60;43.50;16.70;102368.00;;;;5062259;28;20067;-64
2022/03/15 04:31:23;;;;;;;8.15;5.05;;;17.60;43.50;16.70;102369.00;;;;5061024;28;20041;-65
2022/03/15 04:34:10;;;;;;;6.45;4.97;;;17.70;43.50;16.70;102370.00;;;;5047257;28;20048;-65
2022/03/15 04:36:56;;;;;;;5.70;4.65;;;17.60;43.50;16.70;102370.00;;;;5056225;28;20090;-65
2022/03/15 04:39:42;;;;;;;6.40;5.53;;;17.60;43.50;16.70;102370.00;;;;5058495;28;20037;-65
2022/03/15 04:42:28;;;;;;;6.47;4.90;;;17.60;43.50;16.70;102366.00;;;;5062985;28;20043;-65
2022/03/15 04:45:15;;;;;;;6.22;4.82;;;17.60;43.50;16.70;102356.00;;;;5042043;28;20044;-65
2022/03/15 04:48:01;;;;;;;7.27;4.97;;;17.60;43.50;16.70;102354.00;;;;5058785;28;20033;-64
2022/03/15 04:50:47;;;;;;;8.50;5.85;;;17.60;43.50;16.70;102351.00;;;;5042208;28;20040;-65
2022/03/15 04:53:33;;;;;;;6.43;4.93;;;17.60;43.50;16.70;102348.00;;;;5064371;28;20044;-65
2022/03/15 04:56:19;;;;;;;6.93;5.35;;;17.60;43.50;16.70;102351.00;;;;5058636;28;20126;-64
2022/03/15 04:59:05;;;;;;;7.28;5.60;;;17.60;43.50;16.70;102355.00;;;;5062398;28;20047;-65
2022/03/15 05:01:51;;;;;;;9.00;5.47;;;17.60;43.50;16.70;102351.00;;;;5029415;28;20047;-65
2022/03/15 05:04:37;;;;;;;7.63;5.55;;;17.60;43.50;16.70;102365.00;;;;5058730;28;20042;-65
2022/03/15 05:07:23;;;;;;;6.25;5.00;;;17.70;43.60;16.70;102357.00;;;;5072236;28;20375;-64
2022/03/15 05:13:14;;;;;;;5.85;5.00;;;17.70;43.60;16.70;102359.00;;;;5048140;28;20083;-64
2022/03/15 05:16:01;;;;;;;6.70;5.43;;;17.60;43.60;16.70;102354.00;;;;5055941;28;20036;-64
2022/03/15 05:18:49;;;;;;;9.32;6.00;;;17.60;43.60;16.70;102348.00;;;;5055429;28;20407;-64
2022/03/15 05:21:35;;;;;;;7.00;5.50;;;17.60;43.60;16.70;102353.00;;;;5062806;28;20462;-65
2022/03/15 05:24:22;;;;;;;8.18;5.97;;;17.60;43.60;16.70;102356.00;;;;5053804;28;20043;-65
2022/03/15 05:27:09;;;;;;;7.03;5.65;;;17.60;43.60;16.70;102353.00;;;;5054549;28;20056;-65
2022/03/15 05:29:55;;;;;;;7.45;5.07;;;17.60;43.60;16.70;102347.00;;;;5061102;28;20464;-65
2022/03/15 05:32:41;;;;;;;7.70;5.68;;;17.60;43.60;16.70;102352.00;;;;5062073;28;20040;-64
2022/03/15 05:35:27;;;;;;;7.35;5.78;;;17.60;43.70;16.70;102353.00;;;;5064039;28;20041;-65
2022/03/15 05:38:13;;;;;;;7.68;5.63;;;17.60;43.70;16.70;102354.00;;;;5053549;28;20037;-64
2022/03/15 05:40:59;;;;;;;7.85;5.43;;;17.60;43.70;16.70;102355.00;;;;5045322;28;20052;-64
2022/03/15 05:43:45;;;;;;;6.07;5.20;;;17.60;43.70;16.70;102349.00;;;;5049655;28;20074;-65
2022/03/15 05:46:32;;;;;;;10.02;6.20;;;17.60;43.70;16.70;102349.00;;;;5052666;28;20044;-65
2022/03/15 05:49:18;;;;;;;9.10;5.72;;;17.60;43.70;16.70;102348.00;;;;5065673;28;20580;-65
2022/03/15 05:52:05;;;;;;;8.02;5.32;;;17.60;43.70;16.70;102346.00;;;;5034760;28;20034;-65
2022/03/15 05:54:51;;;;;;;7.03;5.35;;;17.60;43.70;16.70;102345.00;;;;5056715;28;20047;-65
2022/03/15 05:57:38;;;;;;;7.15;5.78;;;17.60;43.80;16.70;102346.00;;;;5042829;28;20469;-65
2022/03/15 06:00:24;;;;;;;7.10;5.45;;;17.60;43.70;16.70;102339.00;;;;5060303;28;20043;-64
2022/03/15 06:03:11;;;;;;;9.30;5.80;;;17.60;43.70;16.70;102338.00;;;;5049014;28;20453;-65
2022/03/15 06:05:57;;;;;;;7.23;5.40;;;17.60;43.70;16.70;102339.00;;;;5032757;28;20051;-65
2022/03/15 06:08:43;;;;;;;8.75;6.00;;;17.60;43.70;16.70;102337.00;;;;5060047;28;20120;-64
2022/03/15 06:11:31;;;;;;;7.57;5.70;;;17.60;43.70;16.70;102335.00;;;;5058200;28;20040;-65
2022/03/15 06:14:19;;;;;;;6.10;5.18;;;17.60;43.80;16.70;102340.00;;;;5057565;28;20045;-64
2022/03/15 06:17:05;;;;;;;7.82;5.85;;;17.60;43.70;16.70;102329.00;;;;5075061;28;20044;-65
2022/03/15 06:19:51;;;;;;;8.15;5.75;;;17.60;43.70;16.70;102332.00;;;;5072313;28;20036;-64
2022/03/15 06:22:37;;;;;;;8.48;5.63;;;17.60;43.70;16.70;102331.00;;;;5077712;28;20125;-65
2022/03/15 06:25:23;;;;;;;9.18;5.85;;;17.60;43.70;16.70;102332.00;;;;5072865;28;20044;-65
2022/03/15 06:28:09;;;;;;;6.50;5.00;;;17.60;43.80;16.70;102329.00;;;;5075942;28;20255;-65
2022/03/15 06:30:57;;;;;;;7.95;6.20;;;17.60;43.80;16.70;102327.00;;;;5059345;28;20044;-64
2022/03/15 06:33:51;;;;;;;6.32;5.57;;;17.60;43.80;16.70;102329.00;;;;5054554;28;20045;-65
2022/03/15 06:36:37;;;;;;;7.07;5.82;;;17.60;43.80;16.60;102339.00;;;;5058668;28;20036;-64
2022/03/15 06:39:23;;;;;;;8.30;5.57;;;17.60;43.70;16.70;102345.00;;;;5053707;28;20044;-65
2022/03/15 06:42:11;;;;;;;8.57;5.80;;;17.60;43.80;16.70;102342.00;;;;5054526;28;20041;-64
2022/03/15 06:44:57;;;;;;;8.60;5.55;;;17.60;43.70;16.60;102337.00;;;;5060401;28;20044;-65
2022/03/15 06:47:43;;;;;;;7.80;6.30;;;17.60;43.80;16.60;102329.00;;;;5053481;28;20116;-64
2022/03/15 06:50:29;;;;;;;8.13;5.30;;;17.60;43.80;16.60;102332.00;;;;5046849;28;20053;-64
2022/03/15 06:53:15;;;;;;;8.10;6.07;;;17.60;43.80;16.60;102320.00;;;;5059358;28;20048;-64
2022/03/15 06:56:01;;;;;;;7.10;5.72;;;17.60;43.80;16.60;102316.00;;;;5057920;28;20051;-65
2022/03/15 06:58:48;;;;;;;8.52;5.65;;;17.60;43.80;16.60;102317.00;;;;5060994;28;20040;-64
2022/03/15 07:01:35;;;;;;;10.53;6.40;;;17.60;43.80;16.60;102316.00;;;;5074684;28;20524;-64
2022/03/15 07:04:21;;;;;;;10.60;5.70;;;17.60;43.80;16.60;102322.00;;;;5075896;28;20294;-65
2022/03/15 07:07:07;;;;;;;8.00;5.53;;;17.60;43.80;16.60;102313.00;;;;5072685;28;20036;-65
2022/03/15 07:09:54;;;;;;;7.93;5.65;;;17.60;43.90;16.60;102313.00;;;;5070483;28;20173;-65
2022/03/15 07:12:40;;;;;;;8.80;5.80;;;17.60;43.80;16.60;102324.00;;;;5064244;28;20093;-65
2022/03/15 07:15:26;;;;;;;8.52;5.63;;;17.60;43.80;16.60;102310.00;;;;5079413;28;20054;-65
2022/03/15 07:18:12;;;;;;;8.57;5.47;;;17.60;43.80;16.60;102307.00;;;;5066044;28;20040;-65
2022/03/15 07:20:58;;;;;;;9.43;5.88;;;17.60;43.80;16.60;102298.00;;;;5060448;28;20044;-64
2022/03/15 07:23:44;;;;;;;7.03;5.70;;;17.60;43.80;16.60;102294.00;;;;5057268;28;20036;-64
2022/03/15 07:26:32;;;;;;;7.93;5.45;;;17.60;43.80;16.60;102289.00;;;;5059238;28;20110;-65
2022/03/15 07:29:18;;;;;;;7.28;5.45;;;17.60;43.90;16.60;102289.00;;;;5060525;28;20037;-65
2022/03/15 07:32:04;;;;;;;7.03;5.55;;;17.60;43.80;16.60;102289.00;;;;5047754;28;20033;-64
2022/03/15 07:34:50;;;;;;;7.78;5.68;;;17.60;44.50;16.60;102285.00;;;;5063247;28;20040;-65
2022/03/15 07:37:36;;;;;;;7.25;5.90;;;17.60;43.80;16.70;102285.00;;;;5064826;28;20393;-64
2022/03/15 07:40:24;;;;;;;7.20;5.22;;;17.60;43.80;16.70;102276.00;;;;5042299;28;20041;-65
2022/03/15 07:43:10;;;;;;;10.80;5.50;;;17.60;43.80;16.70;102281.00;;;;5054672;28;20074;-65
2022/03/15 07:45:56;;;;;;;7.10;5.22;;;17.60;43.90;16.70;102277.00;;;;5061233;28;20140;-65
2022/03/15 07:48:42;;;;;;;7.85;5.35;;;17.60;43.90;16.70;102281.00;;;;5045474;28;20077;-65
2022/03/15 07:51:28;;;;;;;6.93;5.03;;;17.60;43.80;16.70;102276.00;;;;5047372;28;20033;-64
2022/03/15 07:54:15;;;;;;;9.30;5.88;;;17.60;43.80;16.70;102268.00;;;;5051998;28;20431;-64
2022/03/15 07:57:02;;;;;;;9.23;5.55;;;17.60;43.80;16.70;102273.00;;;;5059946;28;20033;-65
2022/03/15 07:59:48;;;;;;;10.98;5.05;;;17.60;43.80;16.70;102272.00;;;;5037520;28;20113;-65
2022/03/15 08:02:34;;;;;;;7.40;5.25;;;17.60;43.80;16.70;102278.00;;;;5061001;28;20044;-65
2022/03/15 08:05:21;;;;;;;8.52;5.65;;;17.60;43.80;16.70;102272.00;;;;5062209;28;20051;-65
2022/03/15 08:08:07;;;;;;;7.53;4.90;;;17.60;43.80;16.70;102272.00;;;;5064436;28;20064;-64
2022/03/15 08:10:53;;;;;;;8.00;5.00;;;17.60;43.80;16.70;102280.00;;;;5057003;28;20056;-64
2022/03/15 08:13:39;;;;;;;6.53;5.13;;;17.70;43.90;16.70;102278.00;;;;5044977;28;20139;-64
2022/03/15 08:16:25;;;;;;;8.88;5.18;;;17.70;43.80;16.70;102278.00;;;;5049202;28;20041;-65
2022/03/15 08:19:12;;;;;;;9.35;5.20;;;17.60;43.80;16.70;102279.00;;;;5049299;28;20134;-64
2022/03/15 08:22:01;;;;;;;10.68;6.07;;;17.70;43.80;16.70;102272.00;;;;5045463;28;20048;-65
2022/03/15 08:24:47;;;;;;;6.93;4.60;;;17.70;43.80;16.70;102268.00;;;;5058781;28;20165;-64
2022/03/15 08:27:34;;;;;;;8.07;4.80;;;17.70;43.80;16.70;102278.00;;;;5058440;28;20053;-64
2022/03/15 08:30:20;;;;;;;6.95;4.53;;;17.70;43.80;16.70;102271.00;;;;5052348;28;20037;-64
2022/03/15 08:33:06;;;;;;;6.30;4.45;;;17.70;43.80;16.70;102277.00;;;;5060065;28;20584;-65
2022/03/15 08:35:52;;;;;;;8.07;4.93;;;17.70;43.80;16.70;102270.00;;;;5049991;28;20043;-64
2022/03/15 08:38:38;;;;;;;6.97;4.90;;;17.70;43.80;16.70;102263.00;;;;5042440;28;20067;-64
2022/03/15 08:41:24;;;;;;;8.48;4.93;;;17.70;43.80;16.70;102265.00;;;;5059560;28;20038;-64
2022/03/15 08:44:11;;;;;;;6.07;4.97;;;17.70;43.80;16.70;102261.00;;;;5062724;28;20047;-65
2022/03/15 08:46:57;;;;;;;6.38;4.70;;;17.70;43.80;16.70;102266.00;;;;5060844;28;20485;-64
2022/03/15 08:49:43;;;;;;;7.95;4.95;;;17.70;43.80;16.70;102250.00;;;;5059361;28;20037;-64
2022/03/15 08:52:29;;;;;;;6.05;4.57;;;17.70;43.80;16.70;102262.00;;;;5055865;28;20119;-65
2022/03/15 08:55:16;;;;;;;7.28;4.50;;;17.70;43.80;16.70;102262.00;;;;5060091;28;20040;-64
2022/03/15 08:58:02;;;;;;;7.68;4.90;;;17.70;43.80;16.70;102260.00;;;;5043066;28;20547;-65
2022/03/15 09:00:49;;;;;;;7.88;4.82;;;17.70;43.80;16.70;102266.00;;;;5057887;28;20398;-65
2022/03/15 09:03:35;;;;;;;5.88;4.53;;;17.70;43.80;16.70;102257.00;;;;5058950;28;20040;-64
2022/03/15 09:06:21;;;;;;;6.18;4.38;;;17.70;43.80;16.70;102261.00;;;;5063292;28;20044;-64
2022/03/15 09:09:07;;;;;;;8.40;5.00;;;17.70;43.80;16.70;102260.00;;;;5061784;28;20037;-64
2022/03/15 09:11:53;;;;;;;7.32;5.18;;;17.70;43.80;16.70;102258.00;;;;5062131;28;20821;-65
2022/03/15 09:14:39;;;;;;;8.63;5.22;;;17.70;43.80;16.70;102261.00;;;;5062385;28;20032;-65
2022/03/15 09:17:25;;;;;;;7.63;4.70;;;17.70;43.80;16.70;102249.00;;;;5059440;28;20108;-64
2022/03/15 09:20:11;;;;;;;6.78;4.22;;;17.70;43.80;16.70;102256.00;;;;5059983;28;20047;-64
2022/03/15 09:22:57;;;;;;;7.60;4.85;;;17.70;43.80;16.70;102253.00;;;;5055905;28;20066;-64
2022/03/15 09:25:43;;;;;;;7.72;4.68;;;17.70;43.80;16.70;102250.00;;;;5044548;28;20568;-64
2022/03/15 09:28:30;;;;;;;6.07;4.53;;;17.70;43.80;16.70;102248.00;;;;5060377;28;20067;-64
2022/03/15 09:31:16;;;;;;;8.15;5.20;;;17.70;43.80;16.70;102249.00;;;;5052834;28;20037;-65
2022/03/15 09:34:02;;;;;;;6.88;4.40;;;17.70;43.80;16.70;102241.00;;;;5061456;28;20036;-64
2022/03/15 09:36:48;;;;;;;7.00;4.72;;;17.70;43.80;16.70;102241.00;;;;5059781;28;20050;-65
2022/03/15 09:39:35;;;;;;;7.28;4.40;;;17.70;43.90;16.70;102241.00;;;;5064422;28;20040;-65
2022/03/15 09:42:21;;;;;;;5.10;4.22;;;17.80;43.90;16.80;102239.00;;;;5061805;28;20376;-65
2022/03/15 09:45:07;;;;;;;6.20;4.38;;;17.70;43.90;16.70;102230.00;;;;5045249;28;20478;-65
2022/03/15 09:47:58;;;;;;;8.45;4.57;;;17.70;43.90;16.80;102232.00;;;;5048159;28;20033;-65
2022/03/15 09:50:44;;;;;;;6.20;4.32;;;17.80;43.90;16.80;102230.00;;;;5054678;28;20033;-65
2022/03/15 09:53:31;;;;;;;6.97;5.10;;;17.90;44.00;16.80;102222.00;;;;5050116;28;20129;-65
2022/03/15 09:56:17;;;;;;;6.35;4.03;;;17.80;44.00;16.80;102214.00;;;;5046691;28;20185;-64
2022/03/15 09:59:03;;;;;;;7.18;4.85;;;17.80;43.90;16.80;102206.00;;;;5058375;28;20446;-65
2022/03/15 10:01:52;;;;;;;5.68;4.10;;;17.80;44.00;16.80;102203.00;;;;5058937;28;20029;-65
2022/03/15 10:04:38;;;;;;;6.28;4.28;;;17.70;43.90;16.80;102201.00;;;;5063125;28;20043;-65
2022/03/15 10:07:24;;;;;;;6.28;4.40;;;17.80;44.00;16.80;102201.00;;;;5058578;28;20511;-65
2022/03/15 10:10:12;;;;;;;7.25;4.50;;;17.80;44.00;16.80;102202.00;;;;5052324;28;20052;-65
2022/03/15 10:12:59;;;;;;;6.45;4.85;;;17.80;44.00;16.80;102188.00;;;;5052130;28;20139;-65
2022/03/15 10:16:14;;;;;;;6.25;3.90;;;17.80;44.00;16.80;102192.00;;;;5056105;28;20081;-64
2022/03/15 10:19:00;;;;;;;6.65;4.22;;;17.80;44.00;16.80;102191.00;;;;5063168;28;20418;-65
2022/03/15 10:21:54;;;;;;;6.20;3.95;;;17.80;43.90;16.80;102181.00;;;;5040919;28;20047;-65
2022/03/15 10:24:40;;;;;;;6.40;4.00;;;17.80;44.00;16.80;102182.00;;;;5041487;28;20576;-65
2022/03/15 10:27:26;;;;;;;6.60;4.10;;;17.80;43.90;16.80;102167.00;;;;5049147;28;20087;-64
2022/03/15 10:30:13;;;;;;;7.22;4.45;;;17.80;44.00;16.80;102165.00;;;;5038970;28;20072;-64
2022/03/15 10:32:59;;;;;;;6.68;4.32;;;17.80;44.00;16.80;102159.00;;;;5044756;28;20067;-64
2022/03/15 10:35:48;;;;;;;5.97;4.15;;;17.80;44.00;16.80;102150.00;;;;5051172;28;20051;-65
2022/03/15 10:38:48;;;;;;;5.28;4.13;;;17.80;44.00;16.80;102159.00;;;;5062274;28;20486;-65
2022/03/15 10:41:54;;;;;;;6.28;3.80;;;17.90;44.80;16.80;102149.00;;;;5056862;28;20048;-64
2022/03/15 10:44:40;;;;;;;6.82;3.90;;;17.90;44.10;16.80;102146.00;;;;5044044;28;20048;-64
2022/03/15 10:47:26;;;;;;;6.72;3.97;;;17.90;44.00;16.80;102139.00;;;;5039467;28;20037;-64
2022/03/15 10:50:13;;;;;;;5.88;3.53;;;17.90;44.10;16.80;102143.00;;;;5055176;28;20029;-65
2022/03/15 10:52:59;;;;;;;6.05;4.43;;;17.90;44.00;16.90;102140.00;;;;5055325;28;20048;-65
2022/03/15 10:55:45;;;;;;;4.38;3.55;;;17.90;44.00;16.90;102137.00;;;;5029043;28;20048;-65
2022/03/15 10:58:31;;;;;;;8.00;4.00;;;17.90;44.00;16.90;102133.00;;;;5063505;28;20099;-65
2022/03/15 11:01:23;;;;;;;6.93;3.80;;;17.90;44.00;16.90;102136.00;;;;5019133;28;20037;-64
2022/03/15 11:04:11;;;;;;;6.35;3.38;;;17.90;44.00;16.90;102128.00;;;;5026081;28;20056;-65
2022/03/15 11:06:57;;;;;;;;;;;17.90;44.00;16.80;102133.00;;;;5051994;28;20437;-64
2022/03/15 11:09:43;;;;;;;5.38;3.40;;;17.90;43.90;16.90;102130.00;;;;5055909;28;19928;-65
2022/03/15 11:12:29;;;;;;;8.27;3.80;;;17.90;43.90;16.90;102122.00;;;;5060760;28;20156;-65
2022/03/15 11:15:16;;;;;;;5.63;3.47;;;17.90;43.90;16.90;102126.00;;;;5052365;28;20049;-65
2022/03/15 11:18:04;;;;;;;4.28;3.42;;;17.90;43.90;16.90;102117.00;;;;5045603;28;20043;-65
2022/03/15 11:20:51;;;;;;;5.35;3.60;;;17.90;43.90;16.90;102115.00;;;;5055978;28;20055;-65
2022/03/15 11:23:38;;;;;;;6.28;3.63;;;17.90;44.00;16.90;102110.00;;;;5043702;28;20032;-64
2022/03/15 11:26:25;;;;;;;3.95;3.08;;;17.90;44.00;16.90;102106.00;;;;5041693;28;20095;-65
2022/03/15 11:29:12;;;;;;;6.28;3.22;;;17.90;44.00;16.90;102105.00;;;;5024064;28;20037;-65
2022/03/15 11:31:59;;;;;;;5.85;3.15;;;17.90;44.00;16.90;102097.00;;;;5040798;28;20044;-65
2022/03/15 11:34:45;;;;;;;5.40;3.67;;;17.90;44.00;16.90;102105.00;;;;5071770;28;20514;-65
2022/03/15 11:37:31;;;;;;;4.25;3.30;;;17.90;44.00;16.90;102106.00;;;;5031695;28;20041;-65
2022/03/15 11:40:18;;;;;;;5.50;3.25;;;17.90;44.60;16.90;102094.00;;;;5052987;28;20150;-65
2022/03/15 11:44:00;;;;;;;4.70;3.07;;;17.90;44.00;16.90;102086.00;;;;5051283;28;20119;-65
2022/03/15 11:46:56;;;;;;;5.35;3.13;;;17.90;44.00;16.90;102074.00;;;;5056231;28;20337;-65
2022/03/15 11:49:59;;;;;;;6.15;3.40;;;17.90;44.00;16.90;102064.00;;;;5052278;28;20032;-65
2022/03/15 11:53:08;;;;;;;5.28;3.25;;;17.90;44.00;16.90;102060.00;;;;5054336;28;20119;-65
2022/03/15 11:56:15;;;;;;;;;;;17.90;44.00;16.90;102056.00;;;;5049078;28;20040;-65
2022/03/15 11:59:02;;;;;;;4.15;2.88;;;18.00;43.90;16.90;102047.00;;;;5040698;28;20265;-65
2022/03/15 12:01:51;;;;;;;7.13;3.03;;;18.00;44.00;16.90;102044.00;;;;5056958;28;20127;-65
2022/03/15 12:04:38;;;;;;;6.30;3.50;;;18.00;44.00;16.90;102029.00;;;;5047957;28;20036;-65
2022/03/15 12:07:36;;;;;;;4.47;2.95;;;18.00;44.10;16.90;102024.00;;;;5029178;28;20045;-65
2022/03/15 12:10:28;;;;;;;6.40;3.05;;;18.00;44.20;16.90;102026.00;;;;5059426;28;20045;-65
2022/03/15 12:13:15;;;;;;;5.15;3.15;;;18.00;44.20;16.90;102024.00;;;;5041182;28;20391;-65
2022/03/15 12:16:15;;;;;;;4.80;3.47;;;18.00;44.20;16.90;102021.00;;;;5059967;28;20068;-65
2022/03/15 12:19:23;;;;;;;4.43;3.05;;;18.00;44.20;16.90;102016.00;;;;5065093;28;20475;-65